Time;durP1;ratioP1;P1;durP2;ratioP2;P2;SDS_P1;SDS_P2;PMS_P1;PMS_P2;Temp;Humidity;BMP_temperature;BMP_pressure;BME280_temperature;BME280_humidity;BME280_pressure;Samples;Min_cycle;Max_cycle;Signal;HPM_P1;HPM_P2
2022/03/03 00:01:16;;;;;;;26.33;17.40;;;;;;;2.48;66.88;101941.09;6279718;22;20274;-59
2022/03/03 00:03:41;;;;;;;27.90;16.92;;;;;;;2.43;67.19;101940.03;6279846;22;20000;-59
2022/03/03 00:06:07;;;;;;;29.58;16.90;;;;;;;2.39;67.53;101933.88;6279735;22;20377;-59
2022/03/03 00:08:32;;;;;;;26.73;17.33;;;;;;;2.45;67.38;101936.69;6279236;22;20004;-59
2022/03/03 00:10:57;;;;;;;28.55;17.20;;;;;;;2.36;67.64;101927.72;6279667;22;20416;-60
2022/03/03 00:13:22;;;;;;;24.25;15.52;;;;;;;2.28;65.40;101913.63;6279229;22;20014;-59
2022/03/03 00:15:48;;;;;;;28.83;16.67;;;;;;;2.35;66.41;101934.59;6279378;22;20000;-60
2022/03/03 00:18:14;;;;;;;27.20;18.25;;;;;;;2.34;67.68;101934.53;6278456;22;20316;-59
2022/03/03 00:20:39;;;;;;;27.00;16.63;;;;;;;2.26;68.66;101923.00;6279600;22;20004;-59
2022/03/03 00:23:04;;;;;;;25.77;16.80;;;;;;;2.24;68.91;101924.69;6279254;22;20393;-59
2022/03/03 00:25:29;;;;;;;31.77;17.20;;;;;;;2.12;68.23;101907.00;6279421;22;20094;-59
2022/03/03 00:27:55;;;;;;;28.23;17.45;;;;;;;2.16;68.56;101924.38;6279766;22;20014;-59
2022/03/03 00:30:20;;;;;;;27.10;17.30;;;;;;;2.05;69.14;101903.34;6279927;22;20358;-59
2022/03/03 00:32:45;;;;;;;28.27;16.48;;;;;;;2.16;69.13;101932.13;6279231;22;20000;-59
2022/03/03 00:35:11;;;;;;;32.92;17.55;;;;;;;2.14;68.72;101930.31;6279923;22;20004;-59
2022/03/03 00:37:37;;;;;;;26.23;17.48;;;;;;;2.05;68.20;101921.41;6279392;22;20019;-60
2022/03/03 00:40:04;;;;;;;27.58;17.13;;;;;;;2.02;68.78;101925.56;6279504;22;20007;-59
2022/03/03 00:42:30;;;;;;;25.52;16.95;;;;;;;1.98;69.44;101921.97;6279338;22;20071;-59
2022/03/03 00:44:55;;;;;;;27.63;17.50;;;;;;;1.99;67.92;101912.53;6279529;22;20033;-60
2022/03/03 00:47:21;;;;;;;27.70;17.67;;;;;;;1.95;69.47;101908.94;6279405;22;20012;-59
2022/03/03 00:49:46;;;;;;;26.20;16.90;;;;;;;1.94;68.71;101924.38;6279253;22;20409;-59
2022/03/03 00:52:11;;;;;;;27.95;17.02;;;;;;;1.82;69.11;101904.16;6279306;22;20297;-59
2022/03/03 00:54:37;;;;;;;29.02;16.92;;;;;;;1.87;69.54;101918.13;6279077;22;20106;-59
2022/03/03 00:57:02;;;;;;;29.27;17.98;;;;;;;1.84;68.91;101917.09;6279549;22;20003;-60
2022/03/03 00:59:27;;;;;;;30.35;17.27;;;;;;;1.84;70.03;101911.94;6279415;22;20004;-60
2022/03/03 01:01:53;;;;;;;29.13;17.80;;;;;;;1.79;70.28;101900.56;6279013;22;20007;-59
2022/03/03 01:04:19;;;;;;;25.83;16.70;;;;;;;1.78;70.37;101915.16;6278894;22;20317;-59
2022/03/03 01:06:44;;;;;;;28.52;17.10;;;;;;;1.71;70.06;101916.63;6279089;22;20004;-59
2022/03/03 01:09:10;;;;;;;26.42;16.67;;;;;;;1.69;69.43;101913.13;6278785;22;20061;-59
2022/03/03 01:11:35;;;;;;;31.10;17.98;;;;;;;1.71;70.74;101919.22;6279022;22;20297;-59
2022/03/03 01:14:01;;;;;;;28.23;17.55;;;;;;;1.67;71.23;101913.88;6279394;22;20089;-58
2022/03/03 01:16:26;;;;;;;28.38;17.65;;;;;;;1.67;70.93;101917.34;6278902;22;20019;-59
2022/03/03 01:18:51;;;;;;;28.70;17.85;;;;;;;1.65;71.40;101923.25;6279269;22;20411;-59
2022/03/03 01:21:17;;;;;;;26.38;16.73;;;;;;;1.60;71.56;101917.88;6278801;22;20032;-59
2022/03/03 01:23:42;;;;;;;26.85;17.60;;;;;;;1.54;71.57;101912.50;6278648;22;20074;-59
2022/03/03 01:26:07;;;;;;;30.75;18.35;;;;;;;1.53;71.62;101910.75;6278999;22;19999;-59
2022/03/03 01:28:33;;;;;;;26.48;16.83;;;;;;;1.50;70.95;101913.19;6279125;22;20034;-60
2022/03/03 01:30:58;;;;;;;28.75;17.60;;;;;;;1.43;71.36;101911.16;6278884;22;20345;-59
2022/03/03 01:33:23;;;;;;;30.30;17.10;;;;;;;1.43;71.96;101912.88;6278413;22;20010;-59
2022/03/03 01:35:49;;;;;;;27.50;17.60;;;;;;;1.40;72.37;101909.34;6278248;22;20121;-59
2022/03/03 01:38:14;;;;;;;27.98;18.00;;;;;;;1.39;72.76;101905.00;6278768;22;20083;-60
2022/03/03 01:40:39;;;;;;;29.73;17.85;;;;;;;1.37;73.12;101903.22;6278696;22;20032;-59
2022/03/03 01:43:05;;;;;;;26.83;18.60;;;;;;;1.27;72.97;101885.59;6278641;22;20035;-59
2022/03/03 01:45:31;;;;;;;28.08;18.33;;;;;;;1.26;72.54;101888.97;6278889;22;20023;-60
2022/03/03 01:47:56;;;;;;;29.13;18.90;;;;;;;1.28;72.45;101889.94;6278715;22;20073;-59
2022/03/03 01:50:22;;;;;;;32.97;19.23;;;;;;;1.22;72.89;101894.81;6278789;22;20075;-59
2022/03/03 01:52:47;;;;;;;31.35;19.60;;;;;;;1.19;70.41;101886.97;6278712;22;20061;-59
2022/03/03 01:55:13;;;;;;;28.85;19.48;;;;;;;1.11;71.41;101885.78;6278572;22;20522;-59
2022/03/03 01:57:39;;;;;;;31.58;19.77;;;;;;;1.16;70.87;101889.44;6278827;22;20018;-59
2022/03/03 02:00:07;;;;;;;32.63;18.85;;;;;;;1.14;70.99;101885.91;6278953;22;20003;-59
2022/03/03 02:02:32;;;;;;;28.85;19.02;;;;;;;1.12;71.49;101877.22;6278625;22;20016;-59
2022/03/03 02:04:57;;;;;;;31.48;19.88;;;;;;;1.07;72.60;101868.41;6278716;22;20450;-59
2022/03/03 02:07:22;;;;;;;30.38;19.67;;;;;;;1.10;73.13;101869.44;6278296;22;20004;-59
2022/03/03 02:09:48;;;;;;;31.15;19.55;;;;;;;1.06;73.01;101862.38;6278371;22;20011;-59
2022/03/03 02:12:13;;;;;;;27.20;18.75;;;;;;;1.03;73.54;101864.84;6278628;22;20003;-59
2022/03/03 02:14:46;;;;;;;35.08;19.67;;;;;;;0.98;73.44;101864.66;6251856;22;20012;-59
2022/03/03 02:17:12;;;;;;;32.78;20.67;;;;;;;0.93;73.47;101865.28;6278541;22;20031;-59
2022/03/03 02:19:38;;;;;;;27.40;18.38;;;;;;;0.90;73.68;101860.88;6278159;22;20358;-60
2022/03/03 02:22:04;;;;;;;29.38;20.02;;;;;;;0.84;73.96;101850.31;6278165;22;20007;-61
2022/03/03 02:24:30;;;;;;;30.88;19.20;;;;;;;0.79;74.59;101849.25;6278452;22;20008;-59
2022/03/03 02:26:59;;;;;;;32.33;19.60;;;;;;;0.89;74.32;101859.09;6278394;22;20086;-59
2022/03/03 02:29:24;;;;;;;31.35;20.27;;;;;;;0.84;74.29;101852.00;6278863;22;20011;-59
2022/03/03 02:31:49;;;;;;;33.55;19.63;;;;;;;0.81;73.84;101854.47;6273512;22;20024;-59
2022/03/03 02:34:15;;;;;;;29.25;18.88;;;;;;;0.82;74.73;101853.66;6278732;22;20392;-59
2022/03/03 02:36:40;;;;;;;29.23;19.20;;;;;;;0.81;74.51;101852.75;6278669;22;20043;-59
2022/03/03 02:39:06;;;;;;;29.42;19.40;;;;;;;0.76;74.68;101850.78;6278293;22;20397;-59
2022/03/03 02:41:31;;;;;;;32.50;19.35;;;;;;;0.78;74.56;101852.63;6278433;22;20034;-59
2022/03/03 02:43:59;;;;;;;32.92;19.73;;;;;;;0.74;74.64;101857.56;6279004;22;20018;-60
2022/03/03 02:46:25;;;;;;;29.02;19.60;;;;;;;0.75;74.18;101856.75;6279651;22;20060;-59
2022/03/03 02:48:50;;;;;;;29.25;18.60;;;;;;;0.75;75.09;101852.50;6280202;22;20011;-59
2022/03/03 02:51:16;;;;;;;30.48;19.33;;;;;;;0.77;75.47;101845.72;6279932;22;20004;-59
2022/03/03 02:53:41;;;;;;;32.17;19.65;;;;;;;0.79;74.42;101849.25;6280222;22;20008;-59
2022/03/03 02:56:07;;;;;;;34.25;20.08;;;;;;;0.76;75.22;101848.22;6280312;22;20079;-59
2022/03/03 02:58:32;;;;;;;31.98;18.65;;;;;;;0.74;74.15;101843.00;6280666;22;20073;-59
2022/03/03 03:00:59;;;;;;;30.85;19.40;;;;;;;0.74;74.67;101840.44;6280479;22;20068;-58
2022/03/03 03:03:25;;;;;;;30.50;19.52;;;;;;;0.73;74.67;101848.09;6280019;22;20404;-59
2022/03/03 03:05:51;;;;;;;31.70;19.90;;;;;;;0.69;75.12;101839.38;6280389;22;20007;-59
2022/03/03 03:08:16;;;;;;;31.02;18.90;;;;;;;0.68;74.76;101845.34;6280108;22;20000;-60
2022/03/03 03:10:42;;;;;;;30.40;18.67;;;;;;;0.68;74.95;101851.38;6279649;22;20008;-60
2022/03/03 03:13:11;;;;;;;29.85;19.55;;;;;;;0.69;74.63;101844.53;6280037;22;20003;-59
2022/03/03 03:15:36;;;;;;;32.40;19.48;;;;;;;0.61;75.66;101840.72;6280434;22;20065;-60
2022/03/03 03:18:16;;;;;;;37.97;20.45;;;;;;;0.62;75.08;101842.50;6279651;22;20324;-60
2022/03/03 03:20:44;;;;;;;35.45;20.98;;;;;;;0.65;75.44;101847.78;6279881;22;20073;-59
2022/03/03 03:23:12;;;;;;;30.92;19.08;;;;;;;0.58;75.74;101843.16;6280552;22;19999;-59
2022/03/03 03:25:37;;;;;;;32.22;18.63;;;;;;;0.61;75.81;101838.16;6280566;22;20008;-60
2022/03/03 03:28:07;;;;;;;32.22;19.15;;;;;;;0.56;76.13;101831.91;6280385;22;20449;-59
2022/03/03 03:30:32;;;;;;;29.65;19.40;;;;;;;0.51;75.61;101818.00;6279979;22;20007;-59
2022/03/03 03:32:58;;;;;;;29.10;18.95;;;;;;;0.51;76.28;101815.41;6280024;22;20014;-59
2022/03/03 03:35:24;;;;;;;35.20;19.67;;;;;;;0.53;76.19;101829.19;6279740;22;20010;-59
2022/03/03 03:37:49;;;;;;;32.53;19.20;;;;;;;0.47;76.11;101826.38;6280490;22;20393;-59
2022/03/03 03:40:15;;;;;;;30.48;18.48;;;;;;;0.47;76.16;101827.25;6280306;22;20008;-59
2022/03/03 03:42:41;;;;;;;31.65;19.45;;;;;;;0.34;76.67;101822.41;6279919;22;20301;-59
2022/03/03 03:45:07;;;;;;;30.17;19.02;;;;;;;0.36;77.00;101818.19;6280143;22;20062;-58
2022/03/03 03:47:32;;;;;;;31.55;19.00;;;;;;;0.33;77.26;101820.66;6279793;22;20007;-59
2022/03/03 03:50:02;;;;;;;32.40;20.25;;;;;;;0.22;77.16;101822.72;6279804;22;20034;-59
2022/03/03 03:52:27;;;;;;;30.50;19.40;;;;;;;0.21;77.80;101813.25;6280034;22;20014;-59
2022/03/03 03:54:53;;;;;;;33.58;20.38;;;;;;;0.18;77.40;101814.81;6279842;22;20297;-59
2022/03/03 03:57:18;;;;;;;33.70;20.05;;;;;;;0.23;77.85;101808.16;6279595;22;20419;-59
2022/03/03 03:59:43;;;;;;;31.45;19.45;;;;;;;0.18;77.56;101801.94;6279299;22;20019;-59
2022/03/03 04:02:08;;;;;;;30.13;19.13;;;;;;;0.19;77.50;101807.16;6279828;22;19999;-59
2022/03/03 04:04:34;;;;;;;30.73;18.83;;;;;;;0.22;76.95;101807.28;6279997;22;20368;-58
2022/03/03 04:06:59;;;;;;;28.85;19.15;;;;;;;0.18;77.82;101807.06;6280013;22;20004;-59
2022/03/03 04:09:24;;;;;;;33.15;19.67;;;;;;;0.17;77.84;101815.66;6280124;22;20396;-59
2022/03/03 04:11:49;;;;;;;30.60;19.58;;;;;;;0.16;77.68;101817.34;6279604;22;20068;-59
2022/03/03 04:14:15;;;;;;;29.55;18.58;;;;;;;0.13;77.55;101812.03;6279193;22;20007;-60
2022/03/03 04:16:40;;;;;;;32.25;19.58;;;;;;;0.15;78.08;101817.25;6279705;22;20019;-59
2022/03/03 04:19:05;;;;;;;31.73;19.88;;;;;;;0.09;77.87;101807.56;6279689;22;20278;-59
2022/03/03 04:21:31;;;;;;;32.90;19.63;;;;;;;-0.01;77.98;101793.44;6279203;22;20007;-59
2022/03/03 04:23:56;;;;;;;35.15;20.70;;;;;;;0.10;78.24;101793.91;6279871;22;20093;-60
2022/03/03 04:26:22;;;;;;;33.00;19.90;;;;;;;0.11;77.91;101792.19;6279498;22;20008;-59
2022/03/03 04:28:47;;;;;;;34.03;20.23;;;;;;;0.17;77.66;101795.06;6279684;22;20012;-59
2022/03/03 04:31:12;;;;;;;34.15;19.35;;;;;;;0.14;76.87;101784.63;6279561;22;20389;-59
2022/03/03 04:33:38;;;;;;;30.30;18.27;;;;;;;0.19;75.92;101783.97;6279229;22;20011;-59
2022/03/03 04:36:04;;;;;;;31.73;19.25;;;;;;;0.27;76.40;101785.22;6279589;22;20086;-59
2022/03/03 04:38:30;;;;;;;34.03;19.75;;;;;;;0.26;75.46;101783.44;6279451;22;20099;-59
2022/03/03 04:40:55;;;;;;;33.63;20.20;;;;;;;0.29;75.79;101786.16;6279377;22;20066;-59
2022/03/03 04:43:20;;;;;;;34.35;19.25;;;;;;;0.24;76.09;101789.34;6279456;22;20011;-59
2022/03/03 04:45:46;;;;;;;30.23;19.55;;;;;;;0.19;76.71;101778.84;6279304;22;20381;-59
2022/03/03 04:48:11;;;;;;;31.42;19.35;;;;;;;0.13;76.64;101765.72;6279170;22;20027;-59
2022/03/03 04:50:36;;;;;;;32.40;19.83;;;;;;;0.19;77.29;101777.97;6279187;22;20003;-59
2022/03/03 04:53:02;;;;;;;32.45;18.92;;;;;;;0.20;76.62;101772.00;6279425;22;20360;-59
2022/03/03 04:55:27;;;;;;;35.67;20.42;;;;;;;0.12;76.90;101766.53;6279249;22;20014;-60
2022/03/03 04:57:52;;;;;;;30.95;19.13;;;;;;;0.10;77.27;101767.28;6279146;22;20103;-59
2022/03/03 05:00:18;;;;;;;30.55;18.83;;;;;;;0.08;77.37;101772.34;6279153;22;20014;-60
2022/03/03 05:02:43;;;;;;;30.40;19.08;;;;;;;0.07;77.94;101778.31;6279624;22;20010;-59
2022/03/03 05:05:09;;;;;;;33.72;19.52;;;;;;;0.07;77.14;101774.88;6279148;22;20352;-59
2022/03/03 05:07:34;;;;;;;33.63;18.33;;;;;;;0.07;75.67;101775.75;6279761;22;20087;-59
2022/03/03 05:10:00;;;;;;;30.77;18.60;;;;;;;0.10;75.94;101775.00;6279480;22;20010;-59
2022/03/03 05:12:26;;;;;;;32.72;19.13;;;;;;;0.15;75.58;101779.53;6278938;22;20069;-59
2022/03/03 05:14:51;;;;;;;30.38;19.13;;;;;;;0.17;75.84;101777.91;6279193;22;20007;-59
2022/03/03 05:17:16;;;;;;;31.25;17.95;;;;;;;0.21;75.54;101779.78;6279048;22;20098;-60
2022/03/03 05:19:42;;;;;;;32.42;18.80;;;;;;;0.21;76.04;101777.22;6278916;22;20065;-60
2022/03/03 05:22:07;;;;;;;32.60;19.25;;;;;;;0.20;76.89;101777.16;6279308;22;20010;-60
2022/03/03 05:24:32;;;;;;;31.60;18.50;;;;;;;0.11;77.33;101771.63;6278484;22;20297;-59
2022/03/03 05:26:57;;;;;;;31.17;20.08;;;;;;;0.10;77.18;101781.03;6279274;22;20006;-59
2022/03/03 05:29:23;;;;;;;30.85;19.58;;;;;;;0.06;77.87;101780.81;6278963;22;20078;-59
2022/03/03 05:31:48;;;;;;;34.33;18.85;;;;;;;0.00;76.64;101779.72;6278990;22;20015;-59
2022/03/03 05:34:14;;;;;;;29.90;18.67;;;;;;;-0.05;77.88;101785.50;6278578;22;20015;-58
2022/03/03 05:36:41;;;;;;;31.13;19.10;;;;;;;-0.11;78.28;101775.81;6279094;22;20347;-59
2022/03/03 05:39:07;;;;;;;30.60;19.27;;;;;;;-0.11;78.16;101783.53;6278505;22;20003;-59
2022/03/03 05:41:34;;;;;;;31.33;18.98;;;;;;;-0.14;78.43;101782.50;6279174;22;20008;-59
2022/03/03 05:43:59;;;;;;;30.60;19.17;;;;;;;-0.19;77.44;101792.59;6278930;22;20004;-59
2022/03/03 05:46:25;;;;;;;31.55;19.35;;;;;;;-0.23;78.05;101790.69;6278856;22;20014;-59
2022/03/03 05:48:50;;;;;;;34.55;19.73;;;;;;;-0.25;78.35;101791.44;6278351;22;20421;-59
2022/03/03 05:51:16;;;;;;;34.28;19.88;;;;;;;-0.30;78.32;101790.34;6278920;22;20004;-60
2022/03/03 05:53:42;;;;;;;32.92;20.00;;;;;;;-0.31;79.14;101796.28;6279034;22;20015;-59
2022/03/03 05:56:11;;;;;;;34.25;19.35;;;;;;;-0.36;79.26;101789.28;6278815;22;20015;-59
2022/03/03 05:58:42;;;;;;;34.72;19.27;;;;;;;-0.37;79.21;101784.94;6278914;22;20031;-59
2022/03/03 06:01:09;;;;;;;34.40;19.00;;;;;;;-0.36;78.82;101791.84;6278438;22;20008;-59
2022/03/03 06:03:35;;;;;;;31.63;19.50;;;;;;;-0.41;79.25;101783.03;6278971;22;20012;-60
2022/03/03 06:06:11;;;;;;;32.55;19.45;;;;;;;-0.43;78.76;101784.66;6279159;22;20010;-59
2022/03/03 06:08:41;;;;;;;34.65;19.77;;;;;;;-0.46;80.06;101784.50;6278316;22;20014;-59
2022/03/03 06:11:12;;;;;;;28.55;18.98;;;;;;;-0.49;79.76;101778.31;6278698;22;20010;-59
2022/03/03 06:13:48;;;;;;;35.17;20.13;;;;;;;-0.47;79.43;101779.28;6278376;22;20014;-59
2022/03/03 06:16:20;;;;;;;33.05;19.58;;;;;;;-0.49;80.36;101768.94;6278126;22;20301;-58
2022/03/03 06:18:46;;;;;;;;;;;;;;;-0.43;78.61;101776.94;6278807;22;20016;-59
2022/03/03 06:21:12;;;;;;;31.83;19.25;;;;;;;-0.49;80.36;101780.91;6281142;22;19907;-60
2022/03/03 06:23:37;;;;;;;32.60;19.40;;;;;;;-0.47;80.71;101772.44;6282014;22;20407;-59
2022/03/03 06:26:05;;;;;;;32.67;19.40;;;;;;;-0.53;80.39;101773.88;6282202;22;20027;-58
2022/03/03 06:28:30;;;;;;;34.95;19.23;;;;;;;-0.52;80.73;101770.50;6281745;22;20007;-60
2022/03/03 06:30:56;;;;;;;33.80;19.42;;;;;;;-0.53;80.83;101774.75;6281549;22;20439;-59
2022/03/03 06:33:22;;;;;;;30.85;18.70;;;;;;;-0.52;80.41;101786.78;6282305;22;20034;-59
2022/03/03 06:35:47;;;;;;;31.60;18.55;;;;;;;-0.52;80.42;101788.50;6281926;22;20381;-59
2022/03/03 06:38:12;;;;;;;36.80;19.38;;;;;;;-0.60;80.58;101779.53;6281891;22;20004;-60
2022/03/03 06:40:38;;;;;;;32.10;18.42;;;;;;;-0.58;81.17;101783.94;6282342;22;19999;-60
2022/03/03 06:43:04;;;;;;;35.40;19.20;;;;;;;-0.57;81.14;101778.00;6282261;22;20378;-59
2022/03/03 06:45:31;;;;;;;34.45;18.83;;;;;;;-0.58;81.43;101786.50;6281637;22;20069;-61
2022/03/03 06:47:59;;;;;;;32.67;18.52;;;;;;;-0.60;81.21;101790.69;6281305;22;20015;-59
2022/03/03 06:50:25;;;;;;;31.42;19.00;;;;;;;-0.53;81.25;101786.72;6281553;22;20427;-59
2022/03/03 06:52:51;;;;;;;33.88;18.13;;;;;;;-0.54;80.86;101793.56;6281685;22;19996;-59
2022/03/03 06:55:25;;;;;;;32.28;18.88;;;;;;;-0.59;81.05;101778.72;6281839;22;20008;-60
2022/03/03 06:57:54;;;;;;;31.45;18.67;;;;;;;-0.42;80.50;101799.25;6281761;22;20336;-60
2022/03/03 07:00:21;;;;;;;32.78;19.05;;;;;;;-0.39;80.38;101799.41;6281790;22;20029;-61
2022/03/03 07:02:48;;;;;;;34.55;18.67;;;;;;;-0.30;80.32;101801.50;6281325;22;20401;-60
2022/03/03 07:05:16;;;;;;;31.52;18.98;;;;;;;-0.26;80.22;101795.69;6281760;22;20004;-60
2022/03/03 07:07:43;;;;;;;31.90;18.67;;;;;;;-0.16;79.84;101804.69;6281475;22;20372;-60
2022/03/03 07:10:11;;;;;;;31.30;19.17;;;;;;;-0.08;79.27;101800.78;6281842;22;20004;-60
2022/03/03 07:12:36;;;;;;;33.05;19.23;;;;;;;-0.03;78.62;101800.19;6281408;22;20375;-59
2022/03/03 07:15:02;;;;;;;37.30;20.17;;;;;;;0.12;78.11;101814.56;6281710;22;20039;-60
2022/03/03 07:17:49;;;;;;;31.70;18.60;;;;;;;0.23;76.86;101814.19;6281857;22;20054;-60
2022/03/03 07:20:39;;;;;;;35.08;19.35;;;;;;;0.30;76.81;101805.94;6281842;22;20012;-60
2022/03/03 07:23:13;;;;;;;33.08;19.33;;;;;;;0.37;77.02;101801.03;6281683;22;20070;-59
2022/03/03 07:25:41;;;;;;;30.58;18.25;;;;;;;0.51;74.87;101808.56;6281827;22;20309;-61
2022/03/03 07:28:12;;;;;;;32.47;17.65;;;;;;;0.68;74.04;101811.84;6281831;22;20015;-60
2022/03/03 07:30:42;;;;;;;36.97;19.55;;;;;;;0.81;74.16;101808.97;6281762;22;20004;-59
2022/03/03 07:33:12;;;;;;;29.38;17.25;;;;;;;1.05;72.22;101803.91;6279694;22;20000;-60
2022/03/03 07:35:41;;;;;;;28.67;17.48;;;;;;;1.42;70.45;101814.00;6279994;22;20305;-59
2022/03/03 07:38:14;;;;;;;28.92;17.05;;;;;;;1.86;68.85;101809.66;6279961;22;20010;-59
2022/03/03 07:40:42;;;;;;;28.65;17.50;;;;;;;2.23;67.43;101804.16;6280310;22;20289;-60
2022/03/03 07:43:12;;;;;;;30.02;16.55;;;;;;;2.67;66.37;101813.44;6280056;22;20057;-59
2022/03/03 07:45:39;;;;;;;27.35;17.05;;;;;;;3.02;64.53;101796.50;6279685;22;20035;-59
2022/03/03 07:48:04;;;;;;;29.92;17.83;;;;;;;3.40;63.13;101805.50;6279854;22;20023;-60
2022/03/03 07:50:30;;;;;;;27.85;16.58;;;;;;;3.82;61.15;101799.00;6280158;22;20008;-59
2022/03/03 07:52:55;;;;;;;28.65;16.55;;;;;;;4.20;59.42;101797.50;6279996;22;20087;-60
2022/03/03 07:55:22;;;;;;;29.05;17.13;;;;;;;4.62;57.47;101793.44;6279899;22;20007;-59
2022/03/03 07:57:57;;;;;;;27.23;16.85;;;;;;;5.22;57.23;101794.94;6279730;22;20011;-60
2022/03/03 08:00:23;;;;;;;32.08;17.42;;;;;;;5.70;53.43;101788.25;6279607;22;20008;-60
2022/03/03 08:02:53;;;;;;;28.77;16.95;;;;;;;6.27;52.77;101784.25;6279464;22;20012;-60
2022/03/03 08:05:19;;;;;;;32.97;17.73;;;;;;;6.81;51.54;101782.63;6279571;22;20004;-60
2022/03/03 08:07:46;;;;;;;28.38;16.85;;;;;;;7.26;49.67;101796.41;6279437;22;20004;-60
2022/03/03 08:10:13;;;;;;;25.65;16.92;;;;;;;7.61;48.22;101796.03;6279476;22;20015;-61
2022/03/03 08:12:40;;;;;;;27.20;16.50;;;;;;;8.06;46.16;101787.06;6278672;22;20392;-60
2022/03/03 08:15:07;;;;;;;25.92;15.98;;;;;;;8.36;46.52;101784.81;6278778;22;20026;-59
2022/03/03 08:17:34;;;;;;;25.20;16.80;;;;;;;8.81;45.41;101788.75;6279267;22;20020;-58
2022/03/03 08:20:02;;;;;;;27.15;16.85;;;;;;;9.32;43.83;101781.31;6279373;22;20007;-60
2022/03/03 08:22:27;;;;;;;24.90;15.90;;;;;;;9.52;42.56;101778.84;6279266;22;20007;-60
2022/03/03 08:24:57;;;;;;;27.90;16.35;;;;;;;9.79;42.50;101775.50;6278907;22;20075;-62
2022/03/03 08:27:25;;;;;;;27.30;16.23;;;;;;;10.07;41.40;101772.09;6278845;22;20037;-61
2022/03/03 08:29:51;;;;;;;26.60;16.35;;;;;;;10.12;40.72;101773.00;6279323;22;20003;-60
2022/03/03 08:32:18;;;;;;;31.80;16.75;;;;;;;9.62;41.83;101774.53;6279240;22;20003;-60
2022/03/03 08:35:05;;;;;;;27.85;16.48;;;;;;;9.08;44.20;101782.00;6278394;22;20011;-60
2022/03/03 08:37:36;;;;;;;25.90;16.50;;;;;;;8.45;43.71;101773.63;6278933;22;20303;-60
2022/03/03 08:40:05;;;;;;;24.53;16.43;;;;;;;7.91;44.09;101791.22;6279022;22;20008;-61
2022/03/03 08:42:36;;;;;;;24.83;16.60;;;;;;;7.52;44.55;101783.75;6279290;22;20012;-60
2022/03/03 08:45:04;;;;;;;28.20;16.95;;;;;;;7.24;46.55;101787.69;6279128;22;20034;-61
2022/03/03 08:47:31;;;;;;;25.85;16.63;;;;;;;7.06;46.59;101797.81;6278994;22;20401;-61
2022/03/03 08:50:00;;;;;;;26.60;17.02;;;;;;;7.02;47.50;101789.91;6279221;22;20003;-61
2022/03/03 08:52:27;;;;;;;24.13;15.98;;;;;;;7.04;47.08;101796.03;6279084;22;20011;-60
2022/03/03 08:54:52;;;;;;;21.95;14.70;;;;;;;6.92;47.29;101784.56;6279242;22;20146;-60
2022/03/03 08:57:18;;;;;;;31.27;16.13;;;;;;;7.02;48.22;101789.91;6279393;22;20075;-60
2022/03/03 08:59:43;;;;;;;24.42;15.65;;;;;;;7.06;47.54;101784.78;6279151;22;20038;-61
2022/03/03 09:02:12;;;;;;;24.60;16.13;;;;;;;7.00;46.51;101789.88;6278888;22;20081;-61
2022/03/03 09:04:37;;;;;;;27.17;15.80;;;;;;;7.20;46.70;101798.03;6279186;22;20004;-60
2022/03/03 09:07:03;;;;;;;25.75;16.35;;;;;;;7.34;47.17;101796.50;6278827;22;20083;-61
2022/03/03 09:09:28;;;;;;;25.25;15.15;;;;;;;7.58;46.74;101790.78;6279740;22;20074;-60
2022/03/03 09:11:53;;;;;;;24.85;16.05;;;;;;;7.45;45.53;101791.44;6278739;22;20039;-58
2022/03/03 09:14:19;;;;;;;22.65;15.25;;;;;;;7.50;44.46;101792.38;6279310;22;20010;-59
2022/03/03 09:16:44;;;;;;;23.90;15.32;;;;;;;7.65;45.18;101792.59;6278823;22;20435;-62
2022/03/03 09:19:09;;;;;;;21.73;14.88;;;;;;;7.81;45.02;101793.66;6278968;22;20019;-60
2022/03/03 09:21:35;;;;;;;25.77;14.80;;;;;;;8.02;45.90;101792.22;6278765;22;20305;-61
2022/03/03 09:24:00;;;;;;;24.08;15.07;;;;;;;8.03;43.75;101793.09;6279255;22;20008;-61
2022/03/03 09:26:27;;;;;;;24.02;14.45;;;;;;;8.06;44.46;101781.84;6278412;22;20074;-61
2022/03/03 09:28:53;;;;;;;27.15;14.15;;;;;;;8.18;44.16;101775.03;6279263;22;20003;-61
2022/03/03 09:31:18;;;;;;;22.30;15.15;;;;;;;8.23;42.98;101781.19;6278914;22;20011;-60
2022/03/03 09:33:44;;;;;;;22.85;15.05;;;;;;;8.22;42.71;101775.94;6278942;22;20035;-61
2022/03/03 09:36:09;;;;;;;22.05;14.85;;;;;;;8.22;43.18;101781.16;6278697;22;20012;-61
2022/03/03 09:38:34;;;;;;;22.17;15.13;;;;;;;8.15;42.96;101774.09;6279279;22;20000;-62
2022/03/03 09:40:59;;;;;;;23.67;15.25;;;;;;;8.25;43.69;101774.25;6278817;22;20012;-61
2022/03/03 09:43:27;;;;;;;22.17;14.57;;;;;;;8.27;42.62;101769.06;6278840;22;20004;-61
2022/03/03 09:45:53;;;;;;;23.77;14.52;;;;;;;8.55;43.61;101765.00;6252035;22;20012;-61
2022/03/03 09:48:18;;;;;;;22.55;15.05;;;;;;;8.75;43.00;101771.28;6278416;22;20352;-61
2022/03/03 09:50:43;;;;;;;21.05;14.80;;;;;;;8.72;41.53;101758.22;6278633;22;20081;-61
2022/03/03 09:53:16;;;;;;;20.65;13.93;;;;;;;8.71;42.66;101759.94;6278833;22;20007;-61
2022/03/03 09:55:44;;;;;;;23.83;13.88;;;;;;;8.87;42.08;101762.69;6278730;22;20008;-61
2022/03/03 09:58:10;;;;;;;23.00;14.18;;;;;;;9.04;42.60;101767.19;6278054;22;20087;-60
2022/03/03 10:00:40;;;;;;;25.20;14.65;;;;;;;9.06;41.12;101769.81;6278658;22;20027;-61
2022/03/03 10:03:08;;;;;;;25.40;14.25;;;;;;;9.10;41.55;101766.34;6278567;22;20016;-61
2022/03/03 10:05:37;;;;;;;20.88;13.82;;;;;;;9.07;40.77;101755.88;6278811;22;20038;-62
2022/03/03 10:08:09;;;;;;;20.10;13.93;;;;;;;9.27;40.83;101774.31;6278603;22;20045;-61
2022/03/03 10:10:38;;;;;;;20.97;13.83;;;;;;;9.20;40.30;101767.28;6278819;22;20007;-61
2022/03/03 10:13:03;;;;;;;21.80;14.13;;;;;;;9.30;41.04;101764.75;6278336;22;20293;-61
2022/03/03 10:15:30;;;;;;;21.48;15.35;;;;;;;9.30;40.23;101759.53;6278514;22;20038;-62
2022/03/03 10:18:06;;;;;;;21.83;14.15;;;;;;;9.58;40.66;101757.06;6278051;22;20012;-61
2022/03/03 10:20:49;;;;;;;22.92;14.70;;;;;;;9.84;42.13;101765.06;6279046;22;20089;-61
2022/03/03 10:23:16;;;;;;;19.60;12.95;;;;;;;9.95;39.55;101763.34;6278457;22;20004;-54
2022/03/03 10:25:44;;;;;;;21.15;14.27;;;;;;;9.95;38.90;101759.00;6278568;22;20011;-60
2022/03/03 10:28:16;;;;;;;20.30;13.95;;;;;;;10.04;39.46;101751.16;6278227;22;20019;-61
2022/03/03 10:31:04;;;;;;;22.90;12.88;;;;;;;10.06;40.12;101753.78;6278380;22;20427;-61
2022/03/03 10:33:38;;;;;;;22.52;13.73;;;;;;;10.03;38.77;101749.47;6278498;22;20011;-61
2022/03/03 10:36:06;;;;;;;22.27;14.05;;;;;;;10.09;37.58;101741.59;6278164;22;20467;-61
2022/03/03 10:38:34;;;;;;;19.70;13.40;;;;;;;10.23;37.83;101741.66;6278946;22;20012;-62
2022/03/03 10:40:59;;;;;;;19.20;13.40;;;;;;;10.20;37.52;101746.91;6277924;22;20003;-61
2022/03/03 10:43:25;;;;;;;18.50;12.43;;;;;;;10.16;36.78;101739.91;6278517;22;20088;-62
2022/03/03 10:45:59;;;;;;;18.05;12.48;;;;;;;10.19;38.19;101749.53;6278323;22;20415;-60
2022/03/03 10:48:26;;;;;;;19.17;11.80;;;;;;;10.11;36.34;101747.72;6278370;22;20016;-61
2022/03/03 10:50:54;;;;;;;19.77;12.18;;;;;;;10.03;35.82;101739.00;6278431;22;20026;-61
2022/03/03 10:53:23;;;;;;;17.45;11.80;;;;;;;10.03;35.60;101725.91;6277901;22;20316;-61
2022/03/03 10:56:05;;;;;;;18.40;12.02;;;;;;;10.12;36.31;101741.63;6278514;22;20011;-61
2022/03/03 10:58:58;;;;;;;17.63;11.50;;;;;;;10.13;36.00;101742.50;6278442;22;20312;-61
2022/03/03 11:01:29;;;;;;;17.88;11.82;;;;;;;10.12;35.08;101736.38;6278380;22;20023;-61
2022/03/03 11:03:55;;;;;;;16.75;11.35;;;;;;;10.10;34.54;101738.13;6277890;22;20012;-61
2022/03/03 11:06:24;;;;;;;16.05;11.52;;;;;;;10.14;35.55;101728.56;6278706;22;20008;-60
2022/03/03 11:08:50;;;;;;;18.73;11.85;;;;;;;10.37;35.22;101723.41;6280952;22;20004;-61
2022/03/03 11:11:16;;;;;;;16.15;11.63;;;;;;;10.53;34.32;101719.94;6280739;22;20008;-61
2022/03/03 11:13:43;;;;;;;17.83;12.05;;;;;;;10.60;34.56;101731.25;6280368;22;20004;-61
2022/03/03 11:16:09;;;;;;;17.20;12.30;;;;;;;10.60;34.69;101723.41;6280037;22;20008;-60